Accueil
METAR-TAF:

METAR-TAF

Aéroports :

Hrodna, Biélorussie

latitude: 53-36-06N, longitude: 024-03-18E, altitude: 135 m

Observation

Le bulletin a été fait il y a 43 minutes, à 04:00 UTC
Vent calme
Température 12°C
Humidité 94%
Pression 1017 hPa
Visibilité: 9000 m

METAR: UMMG 130400Z 00000MPS 9000 NSC 12/11 Q1017 NOSIG

Heure: 07:43 (04:43 UTC)

Prévision

Le bulletin a été fait il y a 14 heures et 42 minutes, à 14:01 UTC
Prévision valable du 12 à 15 UTC au 12 à 24 UTC
Vent 8 kt de ouest/nord-ouest avec des rafales jusqu'à 17 kt
Visibilité 10 km ou plus
Nuages fragmentés à une hauteur de 2000 ft
Temporairement
du 12 à 15 UTC au 12 à 18 UTC
Vent 8 kt de ouest/nord-ouest avec des rafales jusqu'à 17 kt

TAF: UMMG 121401Z 1215/1224 29004G09MPS 9999 BKN020 TEMPO 1215/1218 30004G09MPS

Observations et prévisions météorologiques de plus de 4000 aéroports (messages METAR et TAF).

Les stations disponibles sont représentées par des disques jaunes et rouges sur la carte.

Passer la souris dessus pour voir le nom de la station.

Cliquer dessus pour voir les observations et prévisions météorologiques.

Pour changer de carte: cliquez sur les boutons verts avec une croix noire pour zoomer, sur le bouton vert avec un tiret pour effectuer un zoom arrière, ou sur les flèches vertes pour les cartes adjacentes.


METAR-TAF: